Amity, MO

5:04 PM CDT on August 29, 2014 (GMT -0500)
KMOMAYSV2 | Change Station
CLOSE
Current Station
Personal Weather Station
Location: MAYSVILLE, MO
Elevation: 971 ft
Nearby Weather Stations

Elev 971 ft 39.88 °N, 94.39 °W | Updated 16 seconds ago

Partly Cloudy
Partly Cloudy
82.9 °F
Feels Like 80 °F
N
2.5
Wind Variable Wind from SSW
Gusts 3.8 mph

Today
High -- | Low -- °F
--% Chance of Precip.
Yesterday
High -- | Low -- °F
Precip. -- in
6:43 AM 7:54 PM
Waxing Crescent, 17% visible
Pressure 29.77 in
Visibility 10.0 miles
Clouds Few 2900 ft
Few 4400 ft
Scattered Clouds 11000 ft
Heat Index 80 °F
Dew Point 38 °F
Humidity 20%
Rainfall -999.00 in
Snow Depth Not available.
UV 0.0 out of 12
Pollen 7.20 out of 12
Air Quality Not available.
Flu Activity Not available.
METAR KSTJ 292153Z AUTO 20006KT 10SM FEW029 FEW044 SCT110 27/21 A2979 RMK AO2 LTG DSNT N SLP080 T02670211

More Conditions Fewer Conditions

Pressure 29.77 in
Visibility 10.0 miles
Clouds Few 2900 ft
Few 4400 ft
Scattered Clouds 11000 ft
Heat Index 80 °F
Dew Point 38 °F
Humidity 20%
Rainfall -999.00 in
Snow Depth Not available.
UV 0.0 out of 12
Pollen 7.20 out of 12
Air Quality Not available.
Flu Activity Not available.
METAR KSTJ 292153Z AUTO 20006KT 10SM FEW029 FEW044 SCT110 27/21 A2979 RMK AO2 LTG DSNT N SLP080 T02670211

More Conditions Fewer Conditions

10-Day Weather Forecast

Almanac

Astronomy

Aug. 29, 2014 Rise Set
Actual Time 6:43 AM CDT 7:54 PM CDT
Civil Twilight 6:15 AM CDT 8:21 PM CDT
Nautical Twilight 5:41 AM CDT 8:55 PM CDT
Astronomical Twilight 5:06 AM CDT 9:29 PM CDT
Moon 10:33 AM CDT 9:52 PM CDT
Length of Visible Light 14h 06m
Length of Day
13h 10m
Tomorrow will be 2m 30s shorter.
Waxing Crescent, 17% of the Moon is Illuminated
Today
Waxing Crescent
Sep 2
First Quarter
Sep 8
Full
Sep 15
Last Quarter
Sep 24
New

Today's Extremes

State Highs State Lows

Community

WunderPhotos

Upload Photos

1,748,354 photos uploaded!

Nearby

Snow Depth

Station Depth Elevation
No new snow has been reported.

Earthquake Activity

City Distance Mag. Time & Date
No recent earthquake activity has been reported nearby.
Minimum magnitude displayed is 2.5.

Coastal Water Temperatures

Place Temperature
No Stations Reporting

Nearby Weather Stations